createdAt,value
2018-12-12T00:00:37.560Z,3.67
2018-12-12T00:03:07.891Z,3.27
2018-12-12T00:05:38.235Z,2.60
2018-12-12T00:08:06.672Z,3.23
2018-12-12T00:10:34.963Z,1.80
2018-12-12T00:13:03.273Z,4.43
2018-12-12T00:15:31.925Z,4.23
2018-12-12T00:18:00.513Z,4.33
2018-12-12T00:20:30.734Z,4.73
2018-12-12T00:22:59.053Z,3.97
2018-12-12T00:25:27.864Z,3.17
2018-12-12T00:27:56.221Z,4.30
2018-12-12T00:30:24.517Z,3.20
2018-12-12T00:32:52.854Z,5.50
2018-12-12T00:35:21.123Z,3.57
2018-12-12T00:37:50.619Z,5.67
2018-12-12T00:40:18.961Z,8.57
2018-12-12T00:42:47.240Z,4.73
2018-12-12T00:45:15.603Z,3.20
2018-12-12T00:47:43.887Z,5.20
2018-12-12T00:50:12.348Z,5.17
2018-12-12T00:52:41.132Z,4.77
2018-12-12T00:55:09.441Z,5.80
2018-12-12T00:57:38.325Z,4.70
2018-12-12T01:00:06.949Z,4.77
2018-12-12T01:02:35.371Z,5.10
2018-12-12T01:05:04.210Z,4.63
2018-12-12T01:07:32.678Z,5.17
2018-12-12T01:10:01.030Z,6.00
2018-12-12T01:12:29.381Z,3.30
2018-12-12T01:14:57.730Z,4.87
2018-12-12T01:17:26.107Z,5.20
2018-12-12T01:19:54.723Z,5.63
2018-12-12T01:22:23.015Z,3.87
2018-12-12T01:24:51.620Z,4.87
2018-12-12T01:27:20.020Z,6.77
2018-12-12T01:29:48.328Z,9.03
2018-12-12T01:32:16.647Z,6.27
2018-12-12T01:34:44.993Z,11.37
2018-12-12T01:37:13.427Z,7.27
2018-12-12T01:39:41.762Z,7.47
2018-12-12T01:42:10.080Z,6.67
2018-12-12T01:44:38.433Z,10.57
2018-12-12T01:47:07.425Z,7.47
2018-12-12T01:49:35.721Z,7.67
2018-12-12T01:52:04.054Z,7.83
2018-12-12T01:54:33.107Z,6.37
2018-12-12T01:57:01.791Z,3.60
2018-12-12T01:59:30.336Z,5.00
2018-12-12T02:01:58.714Z,7.40
2018-12-12T02:04:27.022Z,8.90
2018-12-12T02:06:55.436Z,9.13
2018-12-12T02:09:24.030Z,4.33
2018-12-12T02:11:53.112Z,5.13
2018-12-12T02:14:21.432Z,6.87
2018-12-12T02:16:49.876Z,7.67
2018-12-12T02:19:18.377Z,8.03
2018-12-12T02:21:46.708Z,7.77
2018-12-12T02:24:15.069Z,9.97
2018-12-12T02:26:43.393Z,9.20
2018-12-12T02:29:11.760Z,7.40
2018-12-12T02:31:40.047Z,8.17
2018-12-12T02:34:08.394Z,8.23
2018-12-12T02:36:36.721Z,7.60
2018-12-12T02:39:06.311Z,6.90
2018-12-12T02:41:36.675Z,6.80
2018-12-12T02:44:05.008Z,6.57
2018-12-12T02:46:33.849Z,7.93
2018-12-12T02:49:02.263Z,8.03
2018-12-12T02:51:30.592Z,7.20
2018-12-12T02:53:59.969Z,11.80
2018-12-12T02:56:31.278Z,6.93
2018-12-12T02:58:59.581Z,7.17
2018-12-12T03:01:28.311Z,5.90
2018-12-12T03:03:56.780Z,7.10
2018-12-12T03:06:25.308Z,6.60
2018-12-12T03:08:54.631Z,6.07
2018-12-12T03:11:24.355Z,8.23
2018-12-12T03:13:53.087Z,5.50
2018-12-12T03:16:21.809Z,6.83
2018-12-12T03:18:50.087Z,6.67
2018-12-12T03:21:18.744Z,7.23
2018-12-12T03:23:47.060Z,10.60
2018-12-12T03:26:15.384Z,6.70
2018-12-12T03:28:43.671Z,7.70
2018-12-12T03:31:11.980Z,8.93
2018-12-12T03:33:40.304Z,5.30
2018-12-12T03:36:08.605Z,5.50
2018-12-12T03:38:36.895Z,7.23
2018-12-12T03:41:05.261Z,5.17
2018-12-12T03:43:33.787Z,6.43
2018-12-12T03:46:02.121Z,5.27
2018-12-12T03:48:34.505Z,5.00
2018-12-12T03:51:02.873Z,7.10
2018-12-12T03:53:31.213Z,5.50
2018-12-12T03:55:59.504Z,6.60
2018-12-12T03:58:32.339Z,7.37
2018-12-12T04:01:00.715Z,7.37
2018-12-12T04:03:29.264Z,7.53
2018-12-12T04:05:58.196Z,10.13
2018-12-12T04:08:26.518Z,5.60
2018-12-12T04:10:54.808Z,6.40
2018-12-12T04:13:23.984Z,5.90
2018-12-12T04:15:52.290Z,5.87
2018-12-12T04:18:20.621Z,6.23
2018-12-12T04:20:48.926Z,6.50
2018-12-12T04:23:17.273Z,9.57
2018-12-12T04:25:45.557Z,8.07
2018-12-12T04:28:13.828Z,10.00
2018-12-12T04:30:42.296Z,7.50
2018-12-12T04:33:10.671Z,10.73
2018-12-12T04:35:38.952Z,9.07
2018-12-12T04:38:07.255Z,8.50
2018-12-12T04:40:35.559Z,9.53
2018-12-12T04:43:04.164Z,9.37
2018-12-12T04:45:32.464Z,7.77
2018-12-12T04:48:00.918Z,8.63
2018-12-12T04:50:29.267Z,7.83
2018-12-12T04:52:57.841Z,9.07
2018-12-12T04:55:26.152Z,7.90
2018-12-12T04:57:54.450Z,8.57
2018-12-12T05:00:22.795Z,6.17
2018-12-12T05:02:51.668Z,6.90
2018-12-12T05:05:19.953Z,6.10
2018-12-12T05:07:48.281Z,5.53
2018-12-12T05:10:16.629Z,5.87
2018-12-12T05:12:45.086Z,6.33
2018-12-12T05:15:13.410Z,6.77
2018-12-12T05:17:41.798Z,8.37
2018-12-12T05:20:10.151Z,7.20
2018-12-12T05:22:38.515Z,5.00
2018-12-12T05:25:07.039Z,7.30
2018-12-12T05:27:35.339Z,6.67
2018-12-12T05:30:03.967Z,5.80
2018-12-12T05:32:32.314Z,6.57
2018-12-12T05:35:00.733Z,5.53
2018-12-12T05:37:29.456Z,6.70
2018-12-12T05:39:57.760Z,7.57
2018-12-12T05:42:26.123Z,5.87
2018-12-12T05:44:54.448Z,7.93
2018-12-12T05:47:22.790Z,6.70
2018-12-12T05:49:51.070Z,5.33
2018-12-12T05:52:19.356Z,7.77
2018-12-12T05:54:48.074Z,7.73
2018-12-12T05:57:16.533Z,6.90
2018-12-12T05:59:45.157Z,7.70
2018-12-12T06:02:13.512Z,5.73
2018-12-12T06:04:41.827Z,5.30
2018-12-12T06:07:10.119Z,6.43
2018-12-12T06:09:38.939Z,7.27
2018-12-12T06:12:07.273Z,8.00
2018-12-12T06:14:35.610Z,5.43
2018-12-12T06:17:03.940Z,4.20
2018-12-12T06:19:32.242Z,5.07
2018-12-12T06:22:00.571Z,7.57
2018-12-12T06:24:28.942Z,4.63
2018-12-12T06:26:57.272Z,6.10
2018-12-12T06:29:25.627Z,7.80
2018-12-12T06:31:53.959Z,5.20
2018-12-12T06:34:26.965Z,4.80
2018-12-12T06:36:55.808Z,4.73
2018-12-12T06:39:24.704Z,5.73
2018-12-12T06:41:52.992Z,5.73
2018-12-12T06:44:21.335Z,8.73
2018-12-12T06:46:49.704Z,9.47
2018-12-12T06:49:18.188Z,4.20
2018-12-12T06:51:46.888Z,5.60
2018-12-12T06:54:15.152Z,5.40
2018-12-12T06:56:43.559Z,7.50
2018-12-12T06:59:11.920Z,6.33
2018-12-12T07:01:40.459Z,6.43
2018-12-12T07:04:08.777Z,9.67
2018-12-12T07:06:37.106Z,5.47
2018-12-12T07:09:08.191Z,3.67
2018-12-12T07:11:37.632Z,6.27
2018-12-12T07:14:05.969Z,7.00
2018-12-12T07:16:34.302Z,5.80
2018-12-12T07:19:02.604Z,8.70
2018-12-12T07:21:30.954Z,4.33
2018-12-12T07:23:59.295Z,4.43
2018-12-12T07:26:27.649Z,3.80
2018-12-12T07:28:56.003Z,5.47
2018-12-12T07:31:24.348Z,6.53
2018-12-12T07:33:52.624Z,5.40
2018-12-12T07:36:20.946Z,4.07
2018-12-12T07:38:49.306Z,3.67
2018-12-12T07:41:18.219Z,4.93
2018-12-12T07:43:48.660Z,7.27
2018-12-12T07:46:35.105Z,3.50
2018-12-12T07:49:05.752Z,6.17
2018-12-12T07:51:40.152Z,5.80
2018-12-12T07:54:13.336Z,7.43
2018-12-12T07:56:41.620Z,4.23
2018-12-12T07:59:09.964Z,5.43
2018-12-12T08:01:38.274Z,4.73
2018-12-12T08:04:06.607Z,4.00
2018-12-12T08:06:34.893Z,5.57
2018-12-12T08:09:04.124Z,5.57
2018-12-12T08:11:34.487Z,6.83
2018-12-12T08:14:03.120Z,4.30
2018-12-12T08:16:31.486Z,4.57
2018-12-12T08:19:01.000Z,13.77
2018-12-12T08:21:29.899Z,10.80
2018-12-12T08:23:58.236Z,11.37
2018-12-12T08:26:26.529Z,8.43
2018-12-12T08:28:54.869Z,6.20
2018-12-12T08:31:23.188Z,5.37
2018-12-12T08:33:51.633Z,5.90
2018-12-12T08:36:19.981Z,6.53
2018-12-12T08:38:48.541Z,6.53
2018-12-12T08:41:17.648Z,5.90
2018-12-12T08:43:45.936Z,5.60
2018-12-12T08:46:14.251Z,5.30
2018-12-12T08:48:43.135Z,4.23
2018-12-12T08:51:11.928Z,5.00
2018-12-12T08:53:40.293Z,4.20
2018-12-12T08:56:08.605Z,4.67
2018-12-12T08:58:43.548Z,5.30
2018-12-12T09:01:11.850Z,4.47
2018-12-12T09:03:40.199Z,6.03
2018-12-12T09:06:08.526Z,6.63
2018-12-12T09:08:36.911Z,5.60
2018-12-12T09:11:05.252Z,5.23
2018-12-12T09:13:33.602Z,5.27
2018-12-12T09:16:01.929Z,8.40
2018-12-12T09:18:30.384Z,7.60
2018-12-12T09:20:58.688Z,7.00
2018-12-12T09:23:27.430Z,11.07
2018-12-12T09:25:55.723Z,6.13
2018-12-12T09:28:24.175Z,9.13
2018-12-12T09:30:54.556Z,8.20
2018-12-12T09:33:26.221Z,7.33
2018-12-12T09:35:56.811Z,6.40
2018-12-12T09:38:25.316Z,10.37
2018-12-12T09:40:54.000Z,6.00
2018-12-12T09:43:22.437Z,6.60
2018-12-12T09:45:50.908Z,6.70
2018-12-12T09:48:21.158Z,6.30
2018-12-12T09:50:49.775Z,6.20
2018-12-12T09:53:20.179Z,5.63
2018-12-12T09:55:48.577Z,4.83
2018-12-12T09:58:17.042Z,6.07
2018-12-12T10:00:45.357Z,7.07
2018-12-12T10:03:13.644Z,7.93
2018-12-12T10:05:42.007Z,6.23
2018-12-12T10:08:10.379Z,7.07
2018-12-12T10:10:38.769Z,7.50
2018-12-12T10:13:07.156Z,7.97
2018-12-12T10:15:35.454Z,6.93
2018-12-12T10:18:03.778Z,7.57
2018-12-12T10:20:32.129Z,9.43
2018-12-12T10:23:00.465Z,5.77
2018-12-12T10:25:28.810Z,8.13
2018-12-12T10:27:57.384Z,9.50
2018-12-12T10:30:26.907Z,9.70
2018-12-12T10:32:55.288Z,9.27
2018-12-12T10:35:23.613Z,9.13
2018-12-12T10:37:51.961Z,9.43
2018-12-12T10:40:20.333Z,8.57
2018-12-12T10:42:48.868Z,10.07
2018-12-12T10:45:17.280Z,10.43
2018-12-12T10:47:46.069Z,11.53
2018-12-12T10:50:15.695Z,10.03
2018-12-12T10:52:44.199Z,9.37
2018-12-12T10:55:12.676Z,10.60
2018-12-12T10:57:42.106Z,12.07
2018-12-12T11:00:12.787Z,14.20
2018-12-12T11:02:46.864Z,7.13
2018-12-12T11:05:15.524Z,8.77
2018-12-12T11:07:43.846Z,7.17
2018-12-12T11:10:13.246Z,8.60
2018-12-12T11:12:41.732Z,7.77
2018-12-12T11:15:10.218Z,6.57
2018-12-12T11:17:38.598Z,9.37
2018-12-12T11:20:07.136Z,8.10
2018-12-12T11:22:35.498Z,8.03
2018-12-12T11:25:04.055Z,7.00
2018-12-12T11:27:32.441Z,8.90
2018-12-12T11:30:00.848Z,8.70
2018-12-12T11:32:29.193Z,7.00
2018-12-12T11:34:58.423Z,6.90
2018-12-12T11:37:26.801Z,7.10
2018-12-12T11:39:55.153Z,7.73
2018-12-12T11:42:23.453Z,8.87
2018-12-12T11:44:52.088Z,9.30
2018-12-12T11:47:20.398Z,6.87
2018-12-12T11:49:48.761Z,7.50
2018-12-12T11:52:19.107Z,12.73
2018-12-12T11:54:47.396Z,8.63
2018-12-12T11:57:16.081Z,7.97
2018-12-12T11:59:44.434Z,9.03
2018-12-12T12:02:12.764Z,9.77
2018-12-12T12:04:41.109Z,8.27
2018-12-12T12:07:09.851Z,8.90
2018-12-12T12:09:38.467Z,9.10
2018-12-12T12:12:06.754Z,8.40
2018-12-12T12:14:37.543Z,6.43
2018-12-12T12:17:05.888Z,7.47
2018-12-12T12:19:34.528Z,9.57
2018-12-12T12:22:02.928Z,9.53
2018-12-12T12:24:32.057Z,10.03
2018-12-12T12:27:00.388Z,9.27
2018-12-12T12:29:28.894Z,10.27
2018-12-12T12:31:57.236Z,6.73
2018-12-12T12:34:25.564Z,6.40
2018-12-12T12:36:53.895Z,8.57
2018-12-12T12:39:22.241Z,7.17
2018-12-12T12:41:50.610Z,6.63
2018-12-12T12:44:19.031Z,7.27
2018-12-12T12:46:47.357Z,10.00
2018-12-12T12:49:16.597Z,5.00
2018-12-12T12:51:45.065Z,4.80
2018-12-12T12:54:13.480Z,5.67
2018-12-12T12:56:41.816Z,6.63
2018-12-12T12:59:10.160Z,6.67
2018-12-12T13:01:38.556Z,9.13
2018-12-12T13:04:09.623Z,5.47
2018-12-12T13:06:37.331Z,6.27
2018-12-12T13:09:07.309Z,5.17
2018-12-12T13:11:37.590Z,4.83
2018-12-12T13:14:05.913Z,7.60
2018-12-12T13:16:34.832Z,4.93
2018-12-12T13:19:03.222Z,6.40
2018-12-12T13:21:31.967Z,6.03
2018-12-12T13:24:00.348Z,5.43
2018-12-12T13:26:28.671Z,5.70
2018-12-12T13:28:57.512Z,7.97
2018-12-12T13:31:25.886Z,8.03
2018-12-12T13:33:54.229Z,5.90
2018-12-12T13:36:22.541Z,5.60
2018-12-12T13:38:50.910Z,5.87
2018-12-12T13:41:19.257Z,7.07
2018-12-12T13:43:48.092Z,4.60
2018-12-12T13:46:17.473Z,8.83
2018-12-12T13:48:45.947Z,16.03
2018-12-12T13:51:14.292Z,12.90
2018-12-12T13:53:42.671Z,14.50
2018-12-12T13:56:12.036Z,7.60
2018-12-12T13:58:40.537Z,6.60
2018-12-12T14:01:08.836Z,10.30
2018-12-12T14:03:37.223Z,9.70
2018-12-12T14:06:05.587Z,12.03
2018-12-12T14:08:33.952Z,14.57
2018-12-12T14:11:02.532Z,12.70
2018-12-12T14:13:31.987Z,14.53
2018-12-12T14:16:00.335Z,12.93
2018-12-12T14:18:28.789Z,14.33
2018-12-12T14:20:57.167Z,14.93
2018-12-12T14:23:29.018Z,14.77
2018-12-12T14:25:57.770Z,15.97
2018-12-12T14:28:26.350Z,16.00
2018-12-12T14:30:54.828Z,11.47
2018-12-12T14:33:23.213Z,12.37
2018-12-12T14:35:51.534Z,11.23
2018-12-12T14:38:20.267Z,9.80
2018-12-12T14:40:48.747Z,13.50
2018-12-12T14:43:17.229Z,11.90
2018-12-12T14:45:45.566Z,10.33
2018-12-12T14:48:13.906Z,12.60
2018-12-12T14:50:42.389Z,12.47
2018-12-12T14:53:10.732Z,11.03
2018-12-12T14:55:39.415Z,11.87
2018-12-12T14:58:08.169Z,15.77
2018-12-12T15:00:36.657Z,12.40
2018-12-12T15:03:05.043Z,10.60
2018-12-12T15:05:33.443Z,12.23
2018-12-12T15:08:01.846Z,17.30
2018-12-12T15:10:30.443Z,17.17
2018-12-12T15:12:58.777Z,17.33
2018-12-12T15:15:27.271Z,15.77
2018-12-12T15:17:56.325Z,17.30
2018-12-12T15:20:24.733Z,19.07
2018-12-12T15:22:53.187Z,12.03
2018-12-12T15:25:21.519Z,13.00
2018-12-12T15:27:49.795Z,12.33
2018-12-12T15:30:18.192Z,15.43
2018-12-12T15:32:48.148Z,13.40
2018-12-12T15:35:16.567Z,14.97
2018-12-12T15:37:44.956Z,14.90
2018-12-12T15:40:13.284Z,21.23
2018-12-12T15:42:42.748Z,13.67
2018-12-12T15:45:11.249Z,19.83
2018-12-12T15:47:39.604Z,16.10
2018-12-12T15:50:08.069Z,14.43
2018-12-12T15:52:36.471Z,11.43
2018-12-12T15:55:05.084Z,13.73
2018-12-12T15:57:33.645Z,13.63
2018-12-12T16:00:04.100Z,14.40
2018-12-12T16:02:32.595Z,14.23
2018-12-12T16:05:01.022Z,13.97
2018-12-12T16:07:31.238Z,13.57
2018-12-12T16:09:59.729Z,14.10
2018-12-12T16:12:28.057Z,13.87
2018-12-12T16:14:57.440Z,14.67
2018-12-12T16:17:26.102Z,14.00
2018-12-12T16:19:54.506Z,12.53
2018-12-12T16:22:22.934Z,15.00
2018-12-12T16:24:51.456Z,16.17
2018-12-12T16:27:20.594Z,18.60
2018-12-12T16:29:48.947Z,16.73
2018-12-12T16:32:17.306Z,15.27
2018-12-12T16:34:45.740Z,16.87
2018-12-12T16:37:14.120Z,20.13
2018-12-12T16:39:42.481Z,22.70
2018-12-12T16:42:10.999Z,20.47
2018-12-12T16:44:41.457Z,23.47
2018-12-12T16:47:28.573Z,21.50
2018-12-12T16:49:57.034Z,21.33
2018-12-12T16:52:25.442Z,24.57
2018-12-12T16:54:53.775Z,25.63
2018-12-12T16:57:22.123Z,21.73
2018-12-12T16:59:50.500Z,24.17
2018-12-12T17:02:18.858Z,19.53
2018-12-12T17:04:47.225Z,24.43
2018-12-12T17:07:15.618Z,22.60
2018-12-12T17:09:43.942Z,21.77
2018-12-12T17:12:12.672Z,23.90
2018-12-12T17:14:41.102Z,23.00
2018-12-12T17:17:09.425Z,24.67
2018-12-12T17:19:38.819Z,23.03
2018-12-12T17:22:07.278Z,22.30
2018-12-12T17:24:35.625Z,21.70
2018-12-12T17:27:04.037Z,22.20
2018-12-12T17:29:32.368Z,23.03
2018-12-12T17:32:01.087Z,23.00
2018-12-12T17:34:29.508Z,17.90
2018-12-12T17:36:57.864Z,24.07
2018-12-12T17:39:26.432Z,19.00
2018-12-12T17:41:55.233Z,18.23
2018-12-12T17:44:24.168Z,21.23
2018-12-12T17:46:52.523Z,17.70
2018-12-12T17:49:20.861Z,16.63
2018-12-12T17:51:49.231Z,17.10
2018-12-12T17:54:18.469Z,21.80
2018-12-12T17:56:47.092Z,17.17
2018-12-12T17:59:15.755Z,17.20
2018-12-12T18:01:44.204Z,17.43
2018-12-12T18:04:29.847Z,18.43
2018-12-12T18:06:58.343Z,18.37
2018-12-12T18:09:26.676Z,20.73
2018-12-12T18:11:55.431Z,16.70
2018-12-12T18:14:23.909Z,18.03
2018-12-12T18:16:54.657Z,18.17
2018-12-12T18:19:22.975Z,19.27
2018-12-12T18:21:55.842Z,18.30
2018-12-12T18:24:26.256Z,17.67
2018-12-12T18:26:54.633Z,21.57
2018-12-12T18:29:23.609Z,19.97
2018-12-12T18:31:54.017Z,21.57
2018-12-12T18:34:45.083Z,17.17
2018-12-12T18:37:15.518Z,19.27
2018-12-12T18:39:43.856Z,18.30
2018-12-12T18:42:14.327Z,16.40
2018-12-12T18:44:49.878Z,15.53
2018-12-12T18:47:18.504Z,16.73
2018-12-12T18:49:46.909Z,15.73
2018-12-12T18:52:17.510Z,19.07
2018-12-12T18:54:45.891Z,17.53
2018-12-12T18:57:16.289Z,16.67
2018-12-12T18:59:44.687Z,16.00
2018-12-12T19:02:13.151Z,18.37
2018-12-12T19:04:42.792Z,16.77
2018-12-12T19:07:28.170Z,19.47
2018-12-12T19:09:57.580Z,17.03
2018-12-12T19:12:26.361Z,17.00
2018-12-12T19:15:01.377Z,20.03
2018-12-12T19:17:30.352Z,16.80
2018-12-12T19:19:58.702Z,17.60
2018-12-12T19:22:27.462Z,20.40
2018-12-12T19:24:56.187Z,18.63
2018-12-12T19:27:24.560Z,19.43
2018-12-12T19:29:54.005Z,15.43
2018-12-12T19:32:22.433Z,20.73
2018-12-12T19:34:50.784Z,14.97
2018-12-12T19:37:19.144Z,13.17
2018-12-12T19:39:47.599Z,15.87
2018-12-12T19:42:15.951Z,17.63
2018-12-12T19:44:44.289Z,15.10
2018-12-12T19:47:12.711Z,14.57
2018-12-12T19:49:41.115Z,14.90
2018-12-12T19:52:09.501Z,19.23
2018-12-12T19:54:37.973Z,13.37
2018-12-12T19:57:06.821Z,15.50
2018-12-12T19:59:35.207Z,14.77
2018-12-12T20:02:03.623Z,14.13
2018-12-12T20:04:36.541Z,13.23
2018-12-12T20:07:06.117Z,16.47
2018-12-12T20:09:34.465Z,13.37
2018-12-12T20:12:02.908Z,14.37
2018-12-12T20:14:31.236Z,17.67
2018-12-12T20:16:59.753Z,16.47
2018-12-12T20:19:28.304Z,18.03
2018-12-12T20:21:56.613Z,18.97
2018-12-12T20:24:25.298Z,16.07
2018-12-12T20:26:53.685Z,15.53
2018-12-12T20:29:22.376Z,13.57
2018-12-12T20:31:50.745Z,16.70
2018-12-12T20:34:19.342Z,16.67
2018-12-12T20:36:48.704Z,16.33
2018-12-12T20:39:17.152Z,17.83
2018-12-12T20:41:45.483Z,12.83
2018-12-12T20:44:13.989Z,13.93
2018-12-12T20:46:42.435Z,13.33
2018-12-12T20:49:10.861Z,12.60
2018-12-12T20:51:39.446Z,14.00
2018-12-12T20:54:10.095Z,13.40
2018-12-12T20:56:38.508Z,11.33
2018-12-12T20:59:06.815Z,15.97
2018-12-12T21:01:35.327Z,11.23
2018-12-12T21:04:03.869Z,13.93
2018-12-12T21:06:32.598Z,14.03
2018-12-12T21:09:01.323Z,14.20
2018-12-12T21:11:31.768Z,15.63
2018-12-12T21:14:00.267Z,11.43
2018-12-12T21:16:28.726Z,13.03
2018-12-12T21:18:57.088Z,15.67
2018-12-12T21:21:25.404Z,14.10
2018-12-12T21:23:53.827Z,13.93
2018-12-12T21:26:22.709Z,15.20
2018-12-12T21:28:51.110Z,13.73
2018-12-12T21:31:20.067Z,12.80
2018-12-12T21:33:49.461Z,13.73
2018-12-12T21:36:18.044Z,11.93
2018-12-12T21:38:46.516Z,15.40
2018-12-12T21:41:15.249Z,10.73
2018-12-12T21:43:50.482Z,8.67
2018-12-12T21:46:18.959Z,11.50
2018-12-12T21:48:47.324Z,9.97
2018-12-12T21:51:15.752Z,10.47
2018-12-12T21:53:44.149Z,9.53
2018-12-12T21:56:12.500Z,10.60
2018-12-12T21:58:40.945Z,9.53
2018-12-12T22:01:09.400Z,11.13
2018-12-12T22:03:37.797Z,11.67
2018-12-12T22:06:07.635Z,10.90
2018-12-12T22:08:36.175Z,11.90
2018-12-12T22:11:04.589Z,13.33
2018-12-12T22:13:33.165Z,9.30
2018-12-12T22:16:02.069Z,10.27
2018-12-12T22:18:30.579Z,11.50
2018-12-12T22:21:01.407Z,9.37
2018-12-12T22:23:30.863Z,11.83
2018-12-12T22:26:00.284Z,7.23
2018-12-12T22:28:28.632Z,11.67
2018-12-12T22:30:56.909Z,6.77
2018-12-12T22:33:25.270Z,9.10
2018-12-12T22:35:53.563Z,9.97
2018-12-12T22:38:21.860Z,7.90
2018-12-12T22:40:50.204Z,9.30
2018-12-12T22:43:18.652Z,9.37
2018-12-12T22:45:47.442Z,8.20
2018-12-12T22:48:20.560Z,6.63
2018-12-12T22:50:46.277Z,4.90
2018-12-12T22:53:17.940Z,7.47
2018-12-12T22:55:46.536Z,7.70
2018-12-12T22:58:15.278Z,8.83
2018-12-12T23:00:49.291Z,10.30
2018-12-12T23:03:20.081Z,7.73
2018-12-12T23:05:48.487Z,6.17
2018-12-12T23:08:19.413Z,7.70
2018-12-12T23:10:47.714Z,6.43
2018-12-12T23:13:16.033Z,7.03
2018-12-12T23:15:44.404Z,7.20
2018-12-12T23:18:12.733Z,7.80
2018-12-12T23:20:41.212Z,8.60
2018-12-12T23:23:11.029Z,5.73
2018-12-12T23:25:39.319Z,6.57
2018-12-12T23:28:07.791Z,7.27
2018-12-12T23:30:36.349Z,9.20
2018-12-12T23:33:06.463Z,7.37
2018-12-12T23:35:34.783Z,8.37
2018-12-12T23:38:03.191Z,7.80
2018-12-12T23:40:31.603Z,7.67
2018-12-12T23:42:59.967Z,8.80
2018-12-12T23:45:28.325Z,7.73
2018-12-12T23:47:56.664Z,11.63
2018-12-12T23:50:25.116Z,7.67
2018-12-12T23:52:53.476Z,7.87
2018-12-12T23:55:21.783Z,10.97
2018-12-12T23:57:50.516Z,10.33
